<?xml version="1.0" encoding="UTF-8" standalone="no" ?>
<gpx xmlns="http://www.topografix.com/GPX/1/1" xmlns:xsi="http://www.w3.org/2001/XMLSchema-instance" xsi:schemaLocation="http://www.topografix.com/GPX/1/1 http://www.topografix.com/GPX/1/1/gpx.xsd" version="1.1" creator="VisuGPX - https://www.visugpx.com">
  <metadata>
    <name>20200630 - Entrainement Etoquies </name>
    <desc><![CDATA[Beaucoup de vent, mais en forme.]]></desc>
  </metadata>
  <trk>
    <name><![CDATA[2020-06-30 18:30:55]]></name>
    <trkseg>
      <trkpt lat="50.1248" lon="3.67814">
        <ele>134.24</ele>
        <time>2020-06-30T16:11:59Z</time>
      </trkpt>
      <trkpt lat="50.1248" lon="3.67814">
        <ele>134.24</ele>
        <time>2020-06-30T16:12:01Z</time>
      </trkpt>
      <trkpt lat="50.12479" lon="3.67813">
        <ele>134.72</ele>
        <time>2020-06-30T16:12:20Z</time>
      </trkpt>
      <trkpt lat="50.12483" lon="3.67817">
        <ele>134.72</ele>
        <time>2020-06-30T16:12:23Z</time>
      </trkpt>
      <trkpt lat="50.1249" lon="3.67826">
        <ele>134.72</ele>
        <time>2020-06-30T16:12:26Z</time>
      </trkpt>
      <trkpt lat="50.12493" lon="3.67831">
        <ele>134.72</ele>
        <time>2020-06-30T16:12:27Z</time>
      </trkpt>
      <trkpt lat="50.12497" lon="3.67835">
        <ele>134.72</ele>
        <time>2020-06-30T16:12:28Z</time>
      </trkpt>
      <trkpt lat="50.12518" lon="3.67858">
        <ele>134.72</ele>
        <time>2020-06-30T16:12:33Z</time>
      </trkpt>
      <trkpt lat="50.12568" lon="3.67901">
        <ele>134.24</ele>
        <time>2020-06-30T16:12:43Z</time>
      </trkpt>
      <trkpt lat="50.12573" lon="3.67906">
        <ele>134.24</ele>
        <time>2020-06-30T16:12:44Z</time>
      </trkpt>
      <trkpt lat="50.12578" lon="3.67912">
        <ele>134.24</ele>
        <time>2020-06-30T16:12:45Z</time>
      </trkpt>
      <trkpt lat="50.12582" lon="3.67919">
        <ele>134.24</ele>
        <time>2020-06-30T16:12:46Z</time>
      </trkpt>
      <trkpt lat="50.12587" lon="3.67926">
        <ele>134.24</ele>
        <time>2020-06-30T16:12:47Z</time>
      </trkpt>
      <trkpt lat="50.12626" lon="3.68004">
        <ele>137.13</ele>
        <time>2020-06-30T16:12:57Z</time>
      </trkpt>
      <trkpt lat="50.12643" lon="3.68038">
        <ele>135.68</ele>
        <time>2020-06-30T16:13:01Z</time>
      </trkpt>
      <trkpt lat="50.12677" lon="3.68114">
        <ele>134.72</ele>
        <time>2020-06-30T16:13:10Z</time>
      </trkpt>
      <trkpt lat="50.12679" lon="3.68123">
        <ele>134.72</ele>
        <time>2020-06-30T16:13:11Z</time>
      </trkpt>
      <trkpt lat="50.12683" lon="3.68131">
        <ele>134.72</ele>
        <time>2020-06-30T16:13:12Z</time>
      </trkpt>
      <trkpt lat="50.12687" lon="3.68139">
        <ele>134.72</ele>
        <time>2020-06-30T16:13:13Z</time>
      </trkpt>
      <trkpt lat="50.12691" lon="3.68148">
        <ele>134.72</ele>
        <time>2020-06-30T16:13:14Z</time>
      </trkpt>
      <trkpt lat="50.12729" lon="3.68232">
        <ele>135.68</ele>
        <time>2020-06-30T16:13:24Z</time>
      </trkpt>
      <trkpt lat="50.12767" lon="3.68346">
        <ele>136.16</ele>
        <time>2020-06-30T16:13:37Z</time>
      </trkpt>
      <trkpt lat="50.12794" lon="3.68423">
        <ele>137.13</ele>
        <time>2020-06-30T16:13:46Z</time>
      </trkpt>
      <trkpt lat="50.12799" lon="3.68439">
        <ele>137.61</ele>
        <time>2020-06-30T16:13:49Z</time>
      </trkpt>
      <trkpt lat="50.12803" lon="3.68442">
        <ele>137.61</ele>
        <time>2020-06-30T16:13:50Z</time>
      </trkpt>
      <trkpt lat="50.12807" lon="3.68442">
        <ele>137.61</ele>
        <time>2020-06-30T16:13:51Z</time>
      </trkpt>
      <trkpt lat="50.12811" lon="3.68441">
        <ele>137.61</ele>
        <time>2020-06-30T16:13:52Z</time>
      </trkpt>
      <trkpt lat="50.12816" lon="3.68439">
        <ele>137.61</ele>
        <time>2020-06-30T16:13:53Z</time>
      </trkpt>
      <trkpt lat="50.12821" lon="3.68435">
        <ele>137.61</ele>
        <time>2020-06-30T16:13:54Z</time>
      </trkpt>
      <trkpt lat="50.12826" lon="3.68431">
        <ele>137.61</ele>
        <time>2020-06-30T16:13:55Z</time>
      </trkpt>
      <trkpt lat="50.12836" lon="3.68422">
        <ele>137.61</ele>
        <time>2020-06-30T16:13:57Z</time>
      </trkpt>
      <trkpt lat="50.1284" lon="3.68416">
        <ele>138.09</ele>
        <time>2020-06-30T16:13:58Z</time>
      </trkpt>
      <trkpt lat="50.12844" lon="3.68409">
        <ele>138.09</ele>
        <time>2020-06-30T16:13:59Z</time>
      </trkpt>
      <trkpt lat="50.12846" lon="3.68402">
        <ele>138.09</ele>
        <time>2020-06-30T16:14:00Z</time>
      </trkpt>
      <trkpt lat="50.12849" lon="3.68395">
        <ele>139.05</ele>
        <time>2020-06-30T16:14:01Z</time>
      </trkpt>
      <trkpt lat="50.12853" lon="3.68391">
        <ele>139.05</ele>
        <time>2020-06-30T16:14:02Z</time>
      </trkpt>
      <trkpt lat="50.12858" lon="3.68392">
        <ele>139.05</ele>
        <time>2020-06-30T16:14:03Z</time>
      </trkpt>
      <trkpt lat="50.12862" lon="3.68395">
        <ele>139.05</ele>
        <time>2020-06-30T16:14:04Z</time>
      </trkpt>
      <trkpt lat="50.12865" lon="3.68399">
        <ele>139.53</ele>
        <time>2020-06-30T16:14:05Z</time>
      </trkpt>
      <trkpt lat="50.12869" lon="3.68405">
        <ele>139.53</ele>
        <time>2020-06-30T16:14:06Z</time>
      </trkpt>
      <trkpt lat="50.12871" lon="3.68412">
        <ele>139.53</ele>
        <time>2020-06-30T16:14:07Z</time>
      </trkpt>
      <trkpt lat="50.12874" lon="3.68419">
        <ele>140.01</ele>
        <time>2020-06-30T16:14:08Z</time>
      </trkpt>
      <trkpt lat="50.12877" lon="3.68426">
        <ele>140.01</ele>
        <time>2020-06-30T16:14:09Z</time>
      </trkpt>
      <trkpt lat="50.1288" lon="3.68433">
        <ele>139.53</ele>
        <time>2020-06-30T16:14:10Z</time>
      </trkpt>
      <trkpt lat="50.12883" lon="3.6844">
        <ele>140.01</ele>
        <time>2020-06-30T16:14:11Z</time>
      </trkpt>
      <trkpt lat="50.12885" lon="3.68448">
        <ele>140.01</ele>
        <time>2020-06-30T16:14:12Z</time>
      </trkpt>
      <trkpt lat="50.12888" lon="3.68456">
        <ele>140.01</ele>
        <time>2020-06-30T16:14:13Z</time>
      </trkpt>
      <trkpt lat="50.12891" lon="3.68463">
        <ele>140.01</ele>
        <time>2020-06-30T16:14:14Z</time>
      </trkpt>
      <trkpt lat="50.12893" lon="3.68471">
        <ele>140.01</ele>
        <time>2020-06-30T16:14:15Z</time>
      </trkpt>
      <trkpt lat="50.12896" lon="3.68479">
        <ele>140.01</ele>
        <time>2020-06-30T16:14:16Z</time>
      </trkpt>
      <trkpt lat="50.12898" lon="3.68487">
        <ele>140.01</ele>
        <time>2020-06-30T16:14:17Z</time>
      </trkpt>
      <trkpt lat="50.12912" lon="3.68527">
        <ele>140.01</ele>
        <time>2020-06-30T16:14:22Z</time>
      </trkpt>
      <trkpt lat="50.12916" lon="3.68545">
        <ele>140.01</ele>
        <time>2020-06-30T16:14:24Z</time>
      </trkpt>
      <trkpt lat="50.12937" lon="3.68608">
        <ele>140.01</ele>
        <time>2020-06-30T16:14:31Z</time>
      </trkpt>
      <trkpt lat="50.12942" lon="3.68626">
        <ele>140.01</ele>
        <time>2020-06-30T16:14:33Z</time>
      </trkpt>
      <trkpt lat="50.12944" lon="3.68636">
        <ele>140.01</ele>
        <time>2020-06-30T16:14:34Z</time>
      </trkpt>
      <trkpt lat="50.12942" lon="3.68646">
        <ele>138.57</ele>
        <time>2020-06-30T16:14:35Z</time>
      </trkpt>
      <trkpt lat="50.12938" lon="3.68653">
        <ele>138.57</ele>
        <time>2020-06-30T16:14:36Z</time>
      </trkpt>
      <trkpt lat="50.12933" lon="3.6866">
        <ele>138.57</ele>
        <time>2020-06-30T16:14:37Z</time>
      </trkpt>
      <trkpt lat="50.12928" lon="3.68666">
        <ele>138.57</ele>
        <time>2020-06-30T16:14:38Z</time>
      </trkpt>
      <trkpt lat="50.12902" lon="3.68702">
        <ele>137.13</ele>
        <time>2020-06-30T16:14:43Z</time>
      </trkpt>
      <trkpt lat="50.12897" lon="3.68708">
        <ele>137.13</ele>
        <time>2020-06-30T16:14:44Z</time>
      </trkpt>
      <trkpt lat="50.12891" lon="3.68713">
        <ele>136.64</ele>
        <time>2020-06-30T16:14:45Z</time>
      </trkpt>
      <trkpt lat="50.12884" lon="3.68715">
        <ele>136.16</ele>
        <time>2020-06-30T16:14:46Z</time>
      </trkpt>
      <trkpt lat="50.12878" lon="3.68712">
        <ele>136.16</ele>
        <time>2020-06-30T16:14:47Z</time>
      </trkpt>
      <trkpt lat="50.12873" lon="3.68706">
        <ele>136.16</ele>
        <time>2020-06-30T16:14:48Z</time>
      </trkpt>
      <trkpt lat="50.12868" lon="3.68698">
        <ele>136.16</ele>
        <time>2020-06-30T16:14:49Z</time>
      </trkpt>
      <trkpt lat="50.12863" lon="3.68691">
        <ele>135.2</ele>
        <time>2020-06-30T16:14:50Z</time>
      </trkpt>
      <trkpt lat="50.12832" lon="3.68654">
        <ele>135.2</ele>
        <time>2020-06-30T16:14:56Z</time>
      </trkpt>
      <trkpt lat="50.12823" lon="3.68643">
        <ele>135.2</ele>
        <time>2020-06-30T16:14:58Z</time>
      </trkpt>
      <trkpt lat="50.12813" lon="3.68629">
        <ele>135.2</ele>
        <time>2020-06-30T16:15:00Z</time>
      </trkpt>
      <trkpt lat="50.12809" lon="3.6862">
        <ele>135.2</ele>
        <time>2020-06-30T16:15:01Z</time>
      </trkpt>
      <trkpt lat="50.12808" lon="3.6861">
        <ele>135.2</ele>
        <time>2020-06-30T16:15:02Z</time>
      </trkpt>
      <trkpt lat="50.12809" lon="3.686">
        <ele>135.2</ele>
        <time>2020-06-30T16:15:03Z</time>
      </trkpt>
      <trkpt lat="50.1281" lon="3.68592">
        <ele>136.16</ele>
        <time>2020-06-30T16:15:04Z</time>
      </trkpt>
      <trkpt lat="50.12812" lon="3.68583">
        <ele>136.16</ele>
        <time>2020-06-30T16:15:05Z</time>
      </trkpt>
      <trkpt lat="50.12815" lon="3.68575">
        <ele>136.64</ele>
        <time>2020-06-30T16:15:06Z</time>
      </trkpt>
      <trkpt lat="50.12825" lon="3.68532">
        <ele>138.09</ele>
        <time>2020-06-30T16:15:11Z</time>
      </trkpt>
      <trkpt lat="50.12844" lon="3.68451">
        <ele>141.45</ele>
        <time>2020-06-30T16:15:23Z</time>
      </trkpt>
      <trkpt lat="50.12866" lon="3.68392">
        <ele>144.82</ele>
        <time>2020-06-30T16:15:36Z</time>
      </trkpt>
      <trkpt lat="50.1291" lon="3.6834">
        <ele>147.22</ele>
        <time>2020-06-30T16:15:50Z</time>
      </trkpt>
      <trkpt lat="50.1292" lon="3.68333">
        <ele>145.78</ele>
        <time>2020-06-30T16:15:52Z</time>
      </trkpt>
      <trkpt lat="50.12968" lon="3.68313">
        <ele>142.89</ele>
        <time>2020-06-30T16:16:01Z</time>
      </trkpt>
      <trkpt lat="50.12974" lon="3.68313">
        <ele>142.89</ele>
        <time>2020-06-30T16:16:02Z</time>
      </trkpt>
      <trkpt lat="50.12987" lon="3.68311">
        <ele>142.89</ele>
        <time>2020-06-30T16:16:04Z</time>
      </trkpt>
      <trkpt lat="50.12993" lon="3.6831">
        <ele>142.89</ele>
        <time>2020-06-30T16:16:05Z</time>
      </trkpt>
      <trkpt lat="50.13011" lon="3.68306">
        <ele>144.34</ele>
        <time>2020-06-30T16:16:08Z</time>
      </trkpt>
      <trkpt lat="50.13048" lon="3.68292">
        <ele>147.22</ele>
        <time>2020-06-30T16:16:15Z</time>
      </trkpt>
      <trkpt lat="50.13052" lon="3.6829">
        <ele>147.22</ele>
        <time>2020-06-30T16:16:16Z</time>
      </trkpt>
      <trkpt lat="50.13097" lon="3.68272">
        <ele>150.1</ele>
        <time>2020-06-30T16:16:26Z</time>
      </trkpt>
      <trkpt lat="50.1314" lon="3.68247">
        <ele>153.47</ele>
        <time>2020-06-30T16:16:38Z</time>
      </trkpt>
      <trkpt lat="50.13189" lon="3.682">
        <ele>155.87</ele>
        <time>2020-06-30T16:16:54Z</time>
      </trkpt>
      <trkpt lat="50.13202" lon="3.68188">
        <ele>156.83</ele>
        <time>2020-06-30T16:16:58Z</time>
      </trkpt>
      <trkpt lat="50.13205" lon="3.68189">
        <ele>156.83</ele>
        <time>2020-06-30T16:16:59Z</time>
      </trkpt>
      <trkpt lat="50.13208" lon="3.68192">
        <ele>157.31</ele>
        <time>2020-06-30T16:17:00Z</time>
      </trkpt>
      <trkpt lat="50.1321" lon="3.68195">
        <ele>157.31</ele>
        <time>2020-06-30T16:17:01Z</time>
      </trkpt>
      <trkpt lat="50.13212" lon="3.682">
        <ele>157.31</ele>
        <time>2020-06-30T16:17:02Z</time>
      </trkpt>
      <trkpt lat="50.13225" lon="3.68229">
        <ele>158.27</ele>
        <time>2020-06-30T16:17:08Z</time>
      </trkpt>
      <trkpt lat="50.13227" lon="3.68234">
        <ele>158.27</ele>
        <time>2020-06-30T16:17:09Z</time>
      </trkpt>
      <trkpt lat="50.13239" lon="3.68264">
        <ele>158.75</ele>
        <time>2020-06-30T16:17:14Z</time>
      </trkpt>
      <trkpt lat="50.13242" lon="3.6827">
        <ele>158.75</ele>
        <time>2020-06-30T16:17:15Z</time>
      </trkpt>
      <trkpt lat="50.13253" lon="3.68284">
        <ele>158.75</ele>
        <time>2020-06-30T16:17:18Z</time>
      </trkpt>
      <trkpt lat="50.13266" lon="3.68296">
        <ele>158.75</ele>
        <time>2020-06-30T16:17:21Z</time>
      </trkpt>
      <trkpt lat="50.13289" lon="3.68316">
        <ele>158.75</ele>
        <time>2020-06-30T16:17:26Z</time>
      </trkpt>
      <trkpt lat="50.13359" lon="3.68358">
        <ele>158.75</ele>
        <time>2020-06-30T16:17:40Z</time>
      </trkpt>
      <trkpt lat="50.13449" lon="3.68403">
        <ele>157.79</ele>
        <time>2020-06-30T16:17:57Z</time>
      </trkpt>
      <trkpt lat="50.13479" lon="3.68418">
        <ele>157.79</ele>
        <time>2020-06-30T16:18:03Z</time>
      </trkpt>
      <trkpt lat="50.13494" lon="3.68429">
        <ele>158.75</ele>
        <time>2020-06-30T16:18:06Z</time>
      </trkpt>
      <trkpt lat="50.13563" lon="3.68507">
        <ele>161.64</ele>
        <time>2020-06-30T16:18:21Z</time>
      </trkpt>
      <trkpt lat="50.13571" lon="3.68519">
        <ele>162.12</ele>
        <time>2020-06-30T16:18:23Z</time>
      </trkpt>
      <trkpt lat="50.13576" lon="3.68524">
        <ele>162.12</ele>
        <time>2020-06-30T16:18:24Z</time>
      </trkpt>
      <trkpt lat="50.13588" lon="3.68538">
        <ele>162.6</ele>
        <time>2020-06-30T16:18:27Z</time>
      </trkpt>
      <trkpt lat="50.13592" lon="3.68542">
        <ele>163.56</ele>
        <time>2020-06-30T16:18:28Z</time>
      </trkpt>
      <trkpt lat="50.13595" lon="3.68546">
        <ele>163.56</ele>
        <time>2020-06-30T16:18:29Z</time>
      </trkpt>
      <trkpt lat="50.13599" lon="3.6855">
        <ele>163.56</ele>
        <time>2020-06-30T16:18:30Z</time>
      </trkpt>
      <trkpt lat="50.13603" lon="3.68553">
        <ele>164.04</ele>
        <time>2020-06-30T16:18:31Z</time>
      </trkpt>
      <trkpt lat="50.13607" lon="3.68556">
        <ele>164.04</ele>
        <time>2020-06-30T16:18:32Z</time>
      </trkpt>
      <trkpt lat="50.13612" lon="3.68559">
        <ele>164.04</ele>
        <time>2020-06-30T16:18:33Z</time>
      </trkpt>
      <trkpt lat="50.13666" lon="3.68588">
        <ele>162.6</ele>
        <time>2020-06-30T16:18:42Z</time>
      </trkpt>
      <trkpt lat="50.13773" lon="3.68645">
        <ele>160.68</ele>
        <time>2020-06-30T16:18:58Z</time>
      </trkpt>
      <trkpt lat="50.13845" lon="3.68674">
        <ele>160.68</ele>
        <time>2020-06-30T16:19:09Z</time>
      </trkpt>
      <trkpt lat="50.13894" lon="3.68696">
        <ele>163.08</ele>
        <time>2020-06-30T16:19:17Z</time>
      </trkpt>
      <trkpt lat="50.139" lon="3.68699">
        <ele>163.08</ele>
        <time>2020-06-30T16:19:18Z</time>
      </trkpt>
      <trkpt lat="50.13922" lon="3.68712">
        <ele>163.56</ele>
        <time>2020-06-30T16:19:22Z</time>
      </trkpt>
      <trkpt lat="50.13927" lon="3.68715">
        <ele>163.56</ele>
        <time>2020-06-30T16:19:23Z</time>
      </trkpt>
      <trkpt lat="50.13951" lon="3.68731">
        <ele>165</ele>
        <time>2020-06-30T16:19:28Z</time>
      </trkpt>
      <trkpt lat="50.13955" lon="3.68734">
        <ele>165</ele>
        <time>2020-06-30T16:19:29Z</time>
      </trkpt>
      <trkpt lat="50.13959" lon="3.68738">
        <ele>165</ele>
        <time>2020-06-30T16:19:30Z</time>
      </trkpt>
      <trkpt lat="50.13963" lon="3.68744">
        <ele>165.48</ele>
        <time>2020-06-30T16:19:31Z</time>
      </trkpt>
      <trkpt lat="50.13963" lon="3.6875">
        <ele>165.48</ele>
        <time>2020-06-30T16:19:32Z</time>
      </trkpt>
      <trkpt lat="50.13962" lon="3.68757">
        <ele>165.48</ele>
        <time>2020-06-30T16:19:33Z</time>
      </trkpt>
      <trkpt lat="50.13961" lon="3.68765">
        <ele>165.96</ele>
        <time>2020-06-30T16:19:34Z</time>
      </trkpt>
      <trkpt lat="50.1396" lon="3.68773">
        <ele>165.96</ele>
        <time>2020-06-30T16:19:35Z</time>
      </trkpt>
      <trkpt lat="50.13959" lon="3.68781">
        <ele>165.96</ele>
        <time>2020-06-30T16:19:36Z</time>
      </trkpt>
      <trkpt lat="50.13959" lon="3.68789">
        <ele>165.96</ele>
        <time>2020-06-30T16:19:37Z</time>
      </trkpt>
      <trkpt lat="50.13957" lon="3.68828">
        <ele>166.45</ele>
        <time>2020-06-30T16:19:42Z</time>
      </trkpt>
      <trkpt lat="50.13957" lon="3.68835">
        <ele>166.45</ele>
        <time>2020-06-30T16:19:43Z</time>
      </trkpt>
      <trkpt lat="50.13957" lon="3.68843">
        <ele>166.45</ele>
        <time>2020-06-30T16:19:44Z</time>
      </trkpt>
      <trkpt lat="50.13955" lon="3.6886">
        <ele>166.45</ele>
        <time>2020-06-30T16:19:46Z</time>
      </trkpt>
      <trkpt lat="50.13954" lon="3.68904">
        <ele>166.45</ele>
        <time>2020-06-30T16:19:51Z</time>
      </trkpt>
      <trkpt lat="50.1395" lon="3.6898">
        <ele>166.93</ele>
        <time>2020-06-30T16:20:00Z</time>
      </trkpt>
      <trkpt lat="50.13947" lon="3.69008">
        <ele>165</ele>
        <time>2020-06-30T16:20:03Z</time>
      </trkpt>
      <trkpt lat="50.13946" lon="3.69019">
        <ele>165</ele>
        <time>2020-06-30T16:20:04Z</time>
      </trkpt>
      <trkpt lat="50.13945" lon="3.6903">
        <ele>165</ele>
        <time>2020-06-30T16:20:05Z</time>
      </trkpt>
      <trkpt lat="50.13941" lon="3.69051">
        <ele>164.04</ele>
        <time>2020-06-30T16:20:07Z</time>
      </trkpt>
      <trkpt lat="50.13935" lon="3.69086">
        <ele>162.6</ele>
        <time>2020-06-30T16:20:10Z</time>
      </trkpt>
      <trkpt lat="50.13932" lon="3.69108">
        <ele>162.6</ele>
        <time>2020-06-30T16:20:12Z</time>
      </trkpt>
      <trkpt lat="50.13932" lon="3.6912">
        <ele>162.6</ele>
        <time>2020-06-30T16:20:13Z</time>
      </trkpt>
      <trkpt lat="50.13932" lon="3.69132">
        <ele>162.12</ele>
        <time>2020-06-30T16:20:14Z</time>
      </trkpt>
      <trkpt lat="50.13939" lon="3.69234">
        <ele>161.16</ele>
        <time>2020-06-30T16:20:23Z</time>
      </trkpt>
      <trkpt lat="50.13937" lon="3.69255">
        <ele>161.16</ele>
        <time>2020-06-30T16:20:25Z</time>
      </trkpt>
      <trkpt lat="50.13933" lon="3.69274">
        <ele>162.12</ele>
        <time>2020-06-30T16:20:27Z</time>
      </trkpt>
      <trkpt lat="50.13911" lon="3.69422">
        <ele>159.72</ele>
        <time>2020-06-30T16:20:42Z</time>
      </trkpt>
      <trkpt lat="50.1391" lon="3.69433">
        <ele>159.24</ele>
        <time>2020-06-30T16:20:43Z</time>
      </trkpt>
      <trkpt lat="50.13891" lon="3.69577">
        <ele>158.27</ele>
        <time>2020-06-30T16:20:56Z</time>
      </trkpt>
      <trkpt lat="50.13872" lon="3.69692">
        <ele>156.83</ele>
        <time>2020-06-30T16:21:07Z</time>
      </trkpt>
      <trkpt lat="50.1387" lon="3.69746">
        <ele>156.35</ele>
        <time>2020-06-30T16:21:12Z</time>
      </trkpt>
      <trkpt lat="50.13871" lon="3.69778">
        <ele>156.35</ele>
        <time>2020-06-30T16:21:15Z</time>
      </trkpt>
      <trkpt lat="50.1387" lon="3.69812">
        <ele>155.39</ele>
        <time>2020-06-30T16:21:18Z</time>
      </trkpt>
      <trkpt lat="50.13849" lon="3.69944">
        <ele>152.51</ele>
        <time>2020-06-30T16:21:29Z</time>
      </trkpt>
      <trkpt lat="50.13843" lon="3.69984">
        <ele>151.06</ele>
        <time>2020-06-30T16:21:32Z</time>
      </trkpt>
      <trkpt lat="50.13836" lon="3.70051">
        <ele>149.14</ele>
        <time>2020-06-30T16:21:37Z</time>
      </trkpt>
      <trkpt lat="50.13835" lon="3.70077">
        <ele>149.62</ele>
        <time>2020-06-30T16:21:39Z</time>
      </trkpt>
      <trkpt lat="50.13837" lon="3.70089">
        <ele>148.66</ele>
        <time>2020-06-30T16:21:40Z</time>
      </trkpt>
      <trkpt lat="50.1384" lon="3.70101">
        <ele>148.66</ele>
        <time>2020-06-30T16:21:41Z</time>
      </trkpt>
      <trkpt lat="50.13843" lon="3.70113">
        <ele>148.66</ele>
        <time>2020-06-30T16:21:42Z</time>
      </trkpt>
      <trkpt lat="50.13847" lon="3.70124">
        <ele>148.18</ele>
        <time>2020-06-30T16:21:43Z</time>
      </trkpt>
      <trkpt lat="50.13851" lon="3.70135">
        <ele>148.18</ele>
        <time>2020-06-30T16:21:44Z</time>
      </trkpt>
      <trkpt lat="50.13853" lon="3.70147">
        <ele>148.18</ele>
        <time>2020-06-30T16:21:45Z</time>
      </trkpt>
      <trkpt lat="50.13852" lon="3.70159">
        <ele>146.74</ele>
        <time>2020-06-30T16:21:46Z</time>
      </trkpt>
      <trkpt lat="50.1385" lon="3.70171">
        <ele>146.26</ele>
        <time>2020-06-30T16:21:47Z</time>
      </trkpt>
      <trkpt lat="50.13846" lon="3.70183">
        <ele>146.26</ele>
        <time>2020-06-30T16:21:48Z</time>
      </trkpt>
      <trkpt lat="50.1383" lon="3.7023">
        <ele>144.34</ele>
        <time>2020-06-30T16:21:52Z</time>
      </trkpt>
      <trkpt lat="50.13797" lon="3.70318">
        <ele>141.93</ele>
        <time>2020-06-30T16:22:00Z</time>
      </trkpt>
      <trkpt lat="50.1379" lon="3.70326">
        <ele>141.93</ele>
        <time>2020-06-30T16:22:01Z</time>
      </trkpt>
      <trkpt lat="50.13775" lon="3.70339">
        <ele>141.45</ele>
        <time>2020-06-30T16:22:03Z</time>
      </trkpt>
      <trkpt lat="50.13769" lon="3.70348">
        <ele>140.01</ele>
        <time>2020-06-30T16:22:04Z</time>
      </trkpt>
      <trkpt lat="50.13733" lon="3.70421">
        <ele>139.53</ele>
        <time>2020-06-30T16:22:12Z</time>
      </trkpt>
      <trkpt lat="50.13728" lon="3.70426">
        <ele>139.53</ele>
        <time>2020-06-30T16:22:13Z</time>
      </trkpt>
      <trkpt lat="50.13723" lon="3.70424">
        <ele>139.53</ele>
        <time>2020-06-30T16:22:14Z</time>
      </trkpt>
      <trkpt lat="50.13719" lon="3.70417">
        <ele>140.97</ele>
        <time>2020-06-30T16:22:15Z</time>
      </trkpt>
      <trkpt lat="50.13717" lon="3.70407">
        <ele>140.97</ele>
        <time>2020-06-30T16:22:16Z</time>
      </trkpt>
      <trkpt lat="50.13716" lon="3.70399">
        <ele>140.97</ele>
        <time>2020-06-30T16:22:17Z</time>
      </trkpt>
      <trkpt lat="50.13714" lon="3.7039">
        <ele>140.97</ele>
        <time>2020-06-30T16:22:18Z</time>
      </trkpt>
      <trkpt lat="50.13712" lon="3.70381">
        <ele>140.97</ele>
        <time>2020-06-30T16:22:19Z</time>
      </trkpt>
      <trkpt lat="50.13683" lon="3.70282">
        <ele>141.93</ele>
        <time>2020-06-30T16:22:30Z</time>
      </trkpt>
      <trkpt lat="50.13668" lon="3.70226">
        <ele>144.82</ele>
        <time>2020-06-30T16:22:36Z</time>
      </trkpt>
      <trkpt lat="50.13661" lon="3.70198">
        <ele>145.3</ele>
        <time>2020-06-30T16:22:39Z</time>
      </trkpt>
      <trkpt lat="50.13658" lon="3.7018">
        <ele>146.26</ele>
        <time>2020-06-30T16:22:41Z</time>
      </trkpt>
      <trkpt lat="50.13647" lon="3.7013">
        <ele>147.7</ele>
        <time>2020-06-30T16:22:47Z</time>
      </trkpt>
      <trkpt lat="50.13644" lon="3.70123">
        <ele>148.18</ele>
        <time>2020-06-30T16:22:48Z</time>
      </trkpt>
      <trkpt lat="50.13629" lon="3.70094">
        <ele>149.14</ele>
        <time>2020-06-30T16:22:53Z</time>
      </trkpt>
      <trkpt lat="50.13626" lon="3.70089">
        <ele>149.14</ele>
        <time>2020-06-30T16:22:54Z</time>
      </trkpt>
      <trkpt lat="50.13616" lon="3.70067">
        <ele>150.58</ele>
        <time>2020-06-30T16:22:58Z</time>
      </trkpt>
      <trkpt lat="50.13613" lon="3.70062">
        <ele>150.58</ele>
        <time>2020-06-30T16:22:59Z</time>
      </trkpt>
      <trkpt lat="50.13611" lon="3.70057">
        <ele>151.06</ele>
        <time>2020-06-30T16:23:00Z</time>
      </trkpt>
      <trkpt lat="50.13608" lon="3.70052">
        <ele>151.06</ele>
        <time>2020-06-30T16:23:01Z</time>
      </trkpt>
      <trkpt lat="50.13606" lon="3.70046">
        <ele>151.06</ele>
        <time>2020-06-30T16:23:02Z</time>
      </trkpt>
      <trkpt lat="50.13601" lon="3.70035">
        <ele>152.03</ele>
        <time>2020-06-30T16:23:04Z</time>
      </trkpt>
      <trkpt lat="50.13599" lon="3.7003">
        <ele>152.03</ele>
        <time>2020-06-30T16:23:05Z</time>
      </trkpt>
      <trkpt lat="50.13597" lon="3.70024">
        <ele>152.03</ele>
        <time>2020-06-30T16:23:06Z</time>
      </trkpt>
      <trkpt lat="50.13595" lon="3.70017">
        <ele>152.03</ele>
        <time>2020-06-30T16:23:07Z</time>
      </trkpt>
      <trkpt lat="50.13594" lon="3.70011">
        <ele>152.03</ele>
        <time>2020-06-30T16:23:08Z</time>
      </trkpt>
      <trkpt lat="50.13592" lon="3.70004">
        <ele>152.03</ele>
        <time>2020-06-30T16:23:09Z</time>
      </trkpt>
      <trkpt lat="50.13591" lon="3.69998">
        <ele>152.03</ele>
        <time>2020-06-30T16:23:10Z</time>
      </trkpt>
      <trkpt lat="50.13577" lon="3.69952">
        <ele>151.54</ele>
        <time>2020-06-30T16:23:17Z</time>
      </trkpt>
      <trkpt lat="50.13554" lon="3.69869">
        <ele>150.1</ele>
        <time>2020-06-30T16:23:29Z</time>
      </trkpt>
      <trkpt lat="50.13552" lon="3.69861">
        <ele>150.1</ele>
        <time>2020-06-30T16:23:30Z</time>
      </trkpt>
      <trkpt lat="50.1355" lon="3.69847">
        <ele>148.66</ele>
        <time>2020-06-30T16:23:32Z</time>
      </trkpt>
      <trkpt lat="50.13534" lon="3.69784">
        <ele>150.58</ele>
        <time>2020-06-30T16:23:41Z</time>
      </trkpt>
      <trkpt lat="50.13532" lon="3.69777">
        <ele>150.58</ele>
        <time>2020-06-30T16:23:42Z</time>
      </trkpt>
      <trkpt lat="50.13501" lon="3.6968">
        <ele>151.54</ele>
        <time>2020-06-30T16:23:55Z</time>
      </trkpt>
      <trkpt lat="50.13491" lon="3.6966">
        <ele>151.54</ele>
        <time>2020-06-30T16:23:58Z</time>
      </trkpt>
      <trkpt lat="50.13484" lon="3.6964">
        <ele>151.54</ele>
        <time>2020-06-30T16:24:01Z</time>
      </trkpt>
      <trkpt lat="50.13478" lon="3.69629">
        <ele>152.03</ele>
        <time>2020-06-30T16:24:03Z</time>
      </trkpt>
      <trkpt lat="50.13475" lon="3.69623">
        <ele>152.03</ele>
        <time>2020-06-30T16:24:04Z</time>
      </trkpt>
      <trkpt lat="50.1345" lon="3.69574">
        <ele>152.03</ele>
        <time>2020-06-30T16:24:12Z</time>
      </trkpt>
      <trkpt lat="50.13423" lon="3.69506">
        <ele>152.03</ele>
        <time>2020-06-30T16:24:21Z</time>
      </trkpt>
      <trkpt lat="50.13421" lon="3.69499">
        <ele>151.06</ele>
        <time>2020-06-30T16:24:22Z</time>
      </trkpt>
      <trkpt lat="50.13418" lon="3.69492">
        <ele>151.06</ele>
        <time>2020-06-30T16:24:23Z</time>
      </trkpt>
      <trkpt lat="50.13416" lon="3.69485">
        <ele>151.06</ele>
        <time>2020-06-30T16:24:24Z</time>
      </trkpt>
      <trkpt lat="50.13414" lon="3.69477">
        <ele>151.06</ele>
        <time>2020-06-30T16:24:25Z</time>
      </trkpt>
      <trkpt lat="50.13402" lon="3.6944">
        <ele>152.03</ele>
        <time>2020-06-30T16:24:30Z</time>
      </trkpt>
      <trkpt lat="50.13384" lon="3.6938">
        <ele>152.51</ele>
        <time>2020-06-30T16:24:39Z</time>
      </trkpt>
      <trkpt lat="50.13378" lon="3.6936">
        <ele>152.99</ele>
        <time>2020-06-30T16:24:42Z</time>
      </trkpt>
      <trkpt lat="50.13376" lon="3.69353">
        <ele>151.54</ele>
        <time>2020-06-30T16:24:43Z</time>
      </trkpt>
      <trkpt lat="50.13373" lon="3.69346">
        <ele>151.54</ele>
        <time>2020-06-30T16:24:44Z</time>
      </trkpt>
      <trkpt lat="50.13367" lon="3.69324">
        <ele>151.06</ele>
        <time>2020-06-30T16:24:47Z</time>
      </trkpt>
      <trkpt lat="50.13363" lon="3.69309">
        <ele>151.06</ele>
        <time>2020-06-30T16:24:49Z</time>
      </trkpt>
      <trkpt lat="50.13361" lon="3.69301">
        <ele>151.06</ele>
        <time>2020-06-30T16:24:50Z</time>
      </trkpt>
      <trkpt lat="50.13359" lon="3.69294">
        <ele>151.06</ele>
        <time>2020-06-30T16:24:51Z</time>
      </trkpt>
      <trkpt lat="50.13356" lon="3.69287">
        <ele>151.06</ele>
        <time>2020-06-30T16:24:52Z</time>
      </trkpt>
      <trkpt lat="50.13353" lon="3.6928">
        <ele>150.58</ele>
        <time>2020-06-30T16:24:53Z</time>
      </trkpt>
      <trkpt lat="50.13351" lon="3.69272">
        <ele>150.1</ele>
        <time>2020-06-30T16:24:54Z</time>
      </trkpt>
      <trkpt lat="50.13349" lon="3.69265">
        <ele>150.1</ele>
        <time>2020-06-30T16:24:55Z</time>
      </trkpt>
      <trkpt lat="50.13347" lon="3.69257">
        <ele>150.1</ele>
        <time>2020-06-30T16:24:56Z</time>
      </trkpt>
      <trkpt lat="50.13345" lon="3.6925">
        <ele>150.1</ele>
        <time>2020-06-30T16:24:57Z</time>
      </trkpt>
      <trkpt lat="50.13342" lon="3.69242">
        <ele>150.1</ele>
        <time>2020-06-30T16:24:58Z</time>
      </trkpt>
      <trkpt lat="50.1334" lon="3.69233">
        <ele>148.66</ele>
        <time>2020-06-30T16:24:59Z</time>
      </trkpt>
      <trkpt lat="50.13339" lon="3.69224">
        <ele>148.66</ele>
        <time>2020-06-30T16:25:00Z</time>
      </trkpt>
      <trkpt lat="50.13337" lon="3.69215">
        <ele>148.66</ele>
        <time>2020-06-30T16:25:01Z</time>
      </trkpt>
      <trkpt lat="50.13335" lon="3.69206">
        <ele>148.66</ele>
        <time>2020-06-30T16:25:02Z</time>
      </trkpt>
      <trkpt lat="50.1333" lon="3.69187">
        <ele>148.18</ele>
        <time>2020-06-30T16:25:04Z</time>
      </trkpt>
      <trkpt lat="50.13328" lon="3.69177">
        <ele>148.18</ele>
        <time>2020-06-30T16:25:05Z</time>
      </trkpt>
      <trkpt lat="50.13325" lon="3.69166">
        <ele>147.7</ele>
        <time>2020-06-30T16:25:06Z</time>
      </trkpt>
      <trkpt lat="50.13322" lon="3.69155">
        <ele>147.7</ele>
        <time>2020-06-30T16:25:07Z</time>
      </trkpt>
      <trkpt lat="50.13319" lon="3.69145">
        <ele>147.7</ele>
        <time>2020-06-30T16:25:08Z</time>
      </trkpt>
      <trkpt lat="50.13297" lon="3.69085">
        <ele>146.74</ele>
        <time>2020-06-30T16:25:14Z</time>
      </trkpt>
      <trkpt lat="50.13292" lon="3.69077">
        <ele>146.74</ele>
        <time>2020-06-30T16:25:15Z</time>
      </trkpt>
      <trkpt lat="50.13254" lon="3.6902">
        <ele>147.7</ele>
        <time>2020-06-30T16:25:23Z</time>
      </trkpt>
      <trkpt lat="50.13199" lon="3.68942">
        <ele>146.74</ele>
        <time>2020-06-30T16:25:35Z</time>
      </trkpt>
      <trkpt lat="50.13141" lon="3.68862">
        <ele>144.34</ele>
        <time>2020-06-30T16:25:47Z</time>
      </trkpt>
      <trkpt lat="50.13118" lon="3.68829">
        <ele>143.37</ele>
        <time>2020-06-30T16:25:52Z</time>
      </trkpt>
      <trkpt lat="50.13114" lon="3.68822">
        <ele>143.37</ele>
        <time>2020-06-30T16:25:53Z</time>
      </trkpt>
      <trkpt lat="50.13056" lon="3.68707">
        <ele>140.49</ele>
        <time>2020-06-30T16:26:07Z</time>
      </trkpt>
      <trkpt lat="50.13" lon="3.68584">
        <ele>138.57</ele>
        <time>2020-06-30T16:26:19Z</time>
      </trkpt>
      <trkpt lat="50.12956" lon="3.68495">
        <ele>139.05</ele>
        <time>2020-06-30T16:26:29Z</time>
      </trkpt>
      <trkpt lat="50.12953" lon="3.68487">
        <ele>139.05</ele>
        <time>2020-06-30T16:26:30Z</time>
      </trkpt>
      <trkpt lat="50.12928" lon="3.68416">
        <ele>140.01</ele>
        <time>2020-06-30T16:26:39Z</time>
      </trkpt>
      <trkpt lat="50.12926" lon="3.68408">
        <ele>140.01</ele>
        <time>2020-06-30T16:26:40Z</time>
      </trkpt>
      <trkpt lat="50.12924" lon="3.68401">
        <ele>140.01</ele>
        <time>2020-06-30T16:26:41Z</time>
      </trkpt>
      <trkpt lat="50.12912" lon="3.68364">
        <ele>140.01</ele>
        <time>2020-06-30T16:26:46Z</time>
      </trkpt>
      <trkpt lat="50.12904" lon="3.68334">
        <ele>140.01</ele>
        <time>2020-06-30T16:26:50Z</time>
      </trkpt>
      <trkpt lat="50.12872" lon="3.68198">
        <ele>138.09</ele>
        <time>2020-06-30T16:27:06Z</time>
      </trkpt>
      <trkpt lat="50.1287" lon="3.6819">
        <ele>138.09</ele>
        <time>2020-06-30T16:27:07Z</time>
      </trkpt>
      <trkpt lat="50.12825" lon="3.68086">
        <ele>138.09</ele>
        <time>2020-06-30T16:27:22Z</time>
      </trkpt>
      <trkpt lat="50.12823" lon="3.68079">
        <ele>138.09</ele>
        <time>2020-06-30T16:27:23Z</time>
      </trkpt>
      <trkpt lat="50.12822" lon="3.68071">
        <ele>138.09</ele>
        <time>2020-06-30T16:27:24Z</time>
      </trkpt>
      <trkpt lat="50.12823" lon="3.68064">
        <ele>138.09</ele>
        <time>2020-06-30T16:27:25Z</time>
      </trkpt>
      <trkpt lat="50.12826" lon="3.68058">
        <ele>138.09</ele>
        <time>2020-06-30T16:27:26Z</time>
      </trkpt>
      <trkpt lat="50.12831" lon="3.68054">
        <ele>138.09</ele>
        <time>2020-06-30T16:27:27Z</time>
      </trkpt>
      <trkpt lat="50.12836" lon="3.6805">
        <ele>138.09</ele>
        <time>2020-06-30T16:27:28Z</time>
      </trkpt>
      <trkpt lat="50.12849" lon="3.68039">
        <ele>139.53</ele>
        <time>2020-06-30T16:27:31Z</time>
      </trkpt>
      <trkpt lat="50.12853" lon="3.68037">
        <ele>139.53</ele>
        <time>2020-06-30T16:27:32Z</time>
      </trkpt>
      <trkpt lat="50.12871" lon="3.68027">
        <ele>140.49</ele>
        <time>2020-06-30T16:27:36Z</time>
      </trkpt>
      <trkpt lat="50.12885" lon="3.6802">
        <ele>140.97</ele>
        <time>2020-06-30T16:27:39Z</time>
      </trkpt>
      <trkpt lat="50.12889" lon="3.6802">
        <ele>140.97</ele>
        <time>2020-06-30T16:27:40Z</time>
      </trkpt>
      <trkpt lat="50.12894" lon="3.68022">
        <ele>140.97</ele>
        <time>2020-06-30T16:27:41Z</time>
      </trkpt>
      <trkpt lat="50.12897" lon="3.68028">
        <ele>141.93</ele>
        <time>2020-06-30T16:27:42Z</time>
      </trkpt>
      <trkpt lat="50.12899" lon="3.68035">
        <ele>142.41</ele>
        <time>2020-06-30T16:27:43Z</time>
      </trkpt>
      <trkpt lat="50.12899" lon="3.68041">
        <ele>142.41</ele>
        <time>2020-06-30T16:27:44Z</time>
      </trkpt>
      <trkpt lat="50.12899" lon="3.68049">
        <ele>142.41</ele>
        <time>2020-06-30T16:27:45Z</time>
      </trkpt>
      <trkpt lat="50.129" lon="3.68055">
        <ele>142.41</ele>
        <time>2020-06-30T16:27:46Z</time>
      </trkpt>
      <trkpt lat="50.12925" lon="3.68168">
        <ele>142.89</ele>
        <time>2020-06-30T16:27:59Z</time>
      </trkpt>
      <trkpt lat="50.12962" lon="3.68282">
        <ele>143.37</ele>
        <time>2020-06-30T16:28:12Z</time>
      </trkpt>
      <trkpt lat="50.12963" lon="3.68291">
        <ele>143.37</ele>
        <time>2020-06-30T16:28:13Z</time>
      </trkpt>
      <trkpt lat="50.12962" lon="3.68301">
        <ele>143.37</ele>
        <time>2020-06-30T16:28:14Z</time>
      </trkpt>
      <trkpt lat="50.12957" lon="3.68309">
        <ele>143.37</ele>
        <time>2020-06-30T16:28:15Z</time>
      </trkpt>
      <trkpt lat="50.12954" lon="3.68311">
        <ele>143.37</ele>
        <time>2020-06-30T16:28:16Z</time>
      </trkpt>
      <trkpt lat="50.12947" lon="3.68314">
        <ele>143.37</ele>
        <time>2020-06-30T16:28:17Z</time>
      </trkpt>
      <trkpt lat="50.12942" lon="3.68316">
        <ele>143.37</ele>
        <time>2020-06-30T16:28:18Z</time>
      </trkpt>
      <trkpt lat="50.12935" lon="3.68318">
        <ele>143.37</ele>
        <time>2020-06-30T16:28:19Z</time>
      </trkpt>
      <trkpt lat="50.12929" lon="3.68321">
        <ele>144.34</ele>
        <time>2020-06-30T16:28:20Z</time>
      </trkpt>
      <trkpt lat="50.12918" lon="3.68327">
        <ele>144.82</ele>
        <time>2020-06-30T16:28:22Z</time>
      </trkpt>
      <trkpt lat="50.12912" lon="3.68331">
        <ele>144.82</ele>
        <time>2020-06-30T16:28:23Z</time>
      </trkpt>
      <trkpt lat="50.12908" lon="3.68334">
        <ele>144.82</ele>
        <time>2020-06-30T16:28:24Z</time>
      </trkpt>
      <trkpt lat="50.12894" lon="3.68344">
        <ele>146.26</ele>
        <time>2020-06-30T16:28:27Z</time>
      </trkpt>
      <trkpt lat="50.1289" lon="3.68348">
        <ele>146.26</ele>
        <time>2020-06-30T16:28:28Z</time>
      </trkpt>
      <trkpt lat="50.12869" lon="3.68374">
        <ele>144.82</ele>
        <time>2020-06-30T16:28:33Z</time>
      </trkpt>
      <trkpt lat="50.12841" lon="3.68436">
        <ele>141.45</ele>
        <time>2020-06-30T16:28:40Z</time>
      </trkpt>
      <trkpt lat="50.12838" lon="3.68447">
        <ele>141.45</ele>
        <time>2020-06-30T16:28:41Z</time>
      </trkpt>
      <trkpt lat="50.12828" lon="3.68495">
        <ele>139.53</ele>
        <time>2020-06-30T16:28:45Z</time>
      </trkpt>
      <trkpt lat="50.12812" lon="3.68567">
        <ele>136.16</ele>
        <time>2020-06-30T16:28:51Z</time>
      </trkpt>
      <trkpt lat="50.12809" lon="3.68578">
        <ele>136.16</ele>
        <time>2020-06-30T16:28:52Z</time>
      </trkpt>
      <trkpt lat="50.12803" lon="3.68598">
        <ele>136.16</ele>
        <time>2020-06-30T16:28:54Z</time>
      </trkpt>
      <trkpt lat="50.12795" lon="3.68613">
        <ele>136.16</ele>
        <time>2020-06-30T16:28:56Z</time>
      </trkpt>
      <trkpt lat="50.1279" lon="3.68615">
        <ele>136.16</ele>
        <time>2020-06-30T16:28:57Z</time>
      </trkpt>
      <trkpt lat="50.12784" lon="3.6861">
        <ele>135.2</ele>
        <time>2020-06-30T16:28:58Z</time>
      </trkpt>
      <trkpt lat="50.12781" lon="3.68606">
        <ele>135.2</ele>
        <time>2020-06-30T16:28:59Z</time>
      </trkpt>
      <trkpt lat="50.12778" lon="3.68598">
        <ele>134.72</ele>
        <time>2020-06-30T16:29:00Z</time>
      </trkpt>
      <trkpt lat="50.12774" lon="3.6859">
        <ele>134.72</ele>
        <time>2020-06-30T16:29:01Z</time>
      </trkpt>
      <trkpt lat="50.12737" lon="3.68516">
        <ele>134.24</ele>
        <time>2020-06-30T16:29:10Z</time>
      </trkpt>
      <trkpt lat="50.12738" lon="3.68505">
        <ele>134.24</ele>
        <time>2020-06-30T16:29:11Z</time>
      </trkpt>
      <trkpt lat="50.12742" lon="3.68499">
        <ele>134.24</ele>
        <time>2020-06-30T16:29:12Z</time>
      </trkpt>
      <trkpt lat="50.12747" lon="3.68494">
        <ele>135.68</ele>
        <time>2020-06-30T16:29:13Z</time>
      </trkpt>
      <trkpt lat="50.12751" lon="3.6849">
        <ele>135.68</ele>
        <time>2020-06-30T16:29:14Z</time>
      </trkpt>
      <trkpt lat="50.12757" lon="3.68486">
        <ele>135.68</ele>
        <time>2020-06-30T16:29:15Z</time>
      </trkpt>
      <trkpt lat="50.128" lon="3.68445">
        <ele>136.16</ele>
        <time>2020-06-30T16:29:23Z</time>
      </trkpt>
      <trkpt lat="50.12802" lon="3.68435">
        <ele>136.16</ele>
        <time>2020-06-30T16:29:24Z</time>
      </trkpt>
      <trkpt lat="50.128" lon="3.68429">
        <ele>136.64</ele>
        <time>2020-06-30T16:29:25Z</time>
      </trkpt>
      <trkpt lat="50.12798" lon="3.68423">
        <ele>136.64</ele>
        <time>2020-06-30T16:29:26Z</time>
      </trkpt>
      <trkpt lat="50.12795" lon="3.68417">
        <ele>136.16</ele>
        <time>2020-06-30T16:29:27Z</time>
      </trkpt>
      <trkpt lat="50.12792" lon="3.68409">
        <ele>136.64</ele>
        <time>2020-06-30T16:29:28Z</time>
      </trkpt>
      <trkpt lat="50.12751" lon="3.68287">
        <ele>135.2</ele>
        <time>2020-06-30T16:29:42Z</time>
      </trkpt>
      <trkpt lat="50.1273" lon="3.68227">
        <ele>135.2</ele>
        <time>2020-06-30T16:29:49Z</time>
      </trkpt>
      <trkpt lat="50.12717" lon="3.68192">
        <ele>135.2</ele>
        <time>2020-06-30T16:29:53Z</time>
      </trkpt>
      <trkpt lat="50.12666" lon="3.68084">
        <ele>133.76</ele>
        <time>2020-06-30T16:30:06Z</time>
      </trkpt>
      <trkpt lat="50.12648" lon="3.68041">
        <ele>134.72</ele>
        <time>2020-06-30T16:30:11Z</time>
      </trkpt>
      <trkpt lat="50.12632" lon="3.6801">
        <ele>134.72</ele>
        <time>2020-06-30T16:30:15Z</time>
      </trkpt>
      <trkpt lat="50.12627" lon="3.68003">
        <ele>134.72</ele>
        <time>2020-06-30T16:30:16Z</time>
      </trkpt>
      <trkpt lat="50.12587" lon="3.67922">
        <ele>133.76</ele>
        <time>2020-06-30T16:30:27Z</time>
      </trkpt>
      <trkpt lat="50.12582" lon="3.67915">
        <ele>133.76</ele>
        <time>2020-06-30T16:30:28Z</time>
      </trkpt>
      <trkpt lat="50.12572" lon="3.67903">
        <ele>133.76</ele>
        <time>2020-06-30T16:30:30Z</time>
      </trkpt>
      <trkpt lat="50.12566" lon="3.67898">
        <ele>133.76</ele>
        <time>2020-06-30T16:30:31Z</time>
      </trkpt>
      <trkpt lat="50.12525" lon="3.67866">
        <ele>133.76</ele>
        <time>2020-06-30T16:30:38Z</time>
      </trkpt>
      <trkpt lat="50.12505" lon="3.67843">
        <ele>133.76</ele>
        <time>2020-06-30T16:30:42Z</time>
      </trkpt>
      <trkpt lat="50.12484" lon="3.67819">
        <ele>133.76</ele>
        <time>2020-06-30T16:30:50Z</time>
      </trkpt>
      <trkpt lat="50.12484" lon="3.67819">
        <ele>134.72</ele>
        <time>2020-06-30T16:30:53Z</time>
      </trkpt>
    </trkseg>
  </trk>
</gpx>